Time;durP1;ratioP1;P1;durP2;ratioP2;P2;SDS_P1;SDS_P2;PMS_P1;PMS_P2;Temp;Humidity;BMP_temperature;BMP_pressure;BME280_temperature;BME280_humidity;BME280_pressure;Samples;Min_cycle;Max_cycle;Signal;HPM_P1;HPM_P2
2023/09/04 00:00:53;;;;;;;12.15;6.93;;;;;;;;;;6259753;28;20428;-58
2023/09/04 00:04:09;;;;;;;15.18;6.90;;;;;;;;;;6255949;28;20463;-58
2023/09/04 00:07:10;;;;;;;11.55;6.80;;;;;;;;;;6255589;28;20112;-55
2023/09/04 00:10:11;;;;;;;9.63;6.88;;;;;;;;;;6256420;28;20057;-58
2023/09/04 00:13:12;;;;;;;12.50;7.20;;;;;;;;;;6243555;28;20409;-57
2023/09/04 00:16:13;;;;;;;9.97;6.40;;;;;;;;;;6245371;28;20040;-58
2023/09/04 00:19:13;;;;;;;9.43;6.57;;;;;;;;;;6245748;28;20298;-59
2023/09/04 00:22:14;;;;;;;11.27;6.47;;;;;;;;;;6244210;28;20057;-59
2023/09/04 00:25:15;;;;;;;11.05;6.32;;;;;;;;;;6242401;28;20037;-59
2023/09/04 00:28:18;;;;;;;13.82;6.65;;;;;;;;;;6247500;28;20510;-56
2023/09/04 00:31:18;;;;;;;10.00;6.43;;;;;;;;;;6248042;28;20493;-59
2023/09/04 00:34:19;;;;;;;11.40;6.82;;;;;;;;;;6243469;28;20139;-59
2023/09/04 00:37:20;;;;;;;13.20;6.93;;;;;;;;;;6247217;28;20534;-59
2023/09/04 00:40:21;;;;;;;12.23;7.22;;;;;;;;;;6246960;28;20119;-59
2023/09/04 00:43:21;;;;;;;11.32;6.95;;;;;;;;;;6241299;28;20057;-58
2023/09/04 00:46:22;;;;;;;10.82;7.07;;;;;;;;;;6258372;28;20076;-58
2023/09/04 00:49:24;;;;;;;17.33;7.78;;;;;;;;;;6253866;28;20112;-57
2023/09/04 00:52:25;;;;;;;9.73;7.00;;;;;;;;;;6253821;28;20041;-58
2023/09/04 00:55:26;;;;;;;12.38;7.60;;;;;;;;;;6246731;28;20045;-57
2023/09/04 00:58:27;;;;;;;10.88;6.55;;;;;;;;;;6254956;28;20037;-58
2023/09/04 01:01:28;;;;;;;9.85;7.13;;;;;;;;;;6256160;28;20052;-58
2023/09/04 01:04:29;;;;;;;16.23;7.38;;;;;;;;;;6253440;28;20040;-59
2023/09/04 01:07:30;;;;;;;11.63;7.03;;;;;;;;;;6254452;28;20034;-59
2023/09/04 01:10:56;;;;;;;11.10;6.70;;;;;;;;;;6255642;28;20094;-58
2023/09/04 01:13:57;;;;;;;11.70;6.85;;;;;;;;;;6263838;28;20053;-55
2023/09/04 01:16:58;;;;;;;11.37;6.50;;;;;;;;;;6248119;28;20037;-58
2023/09/04 01:19:59;;;;;;;11.52;6.88;;;;;;;;;;6244075;28;20044;-59
2023/09/04 01:23:00;;;;;;;12.88;6.60;;;;;;;;;;6244091;28;20041;-57
2023/09/04 01:26:08;;;;;;;9.80;6.07;;;;;;;;;;6246945;28;20049;-56
2023/09/04 01:29:20;;;;;;;9.98;6.03;;;;;;;;;;6255802;28;20496;-58
2023/09/04 01:32:26;;;;;;;;;;;;;;;;;;6249363;28;20497;-55
2023/09/04 01:35:30;;;;;;;10.15;6.10;;;;;;;;;;6248657;28;20287;-57
2023/09/04 01:38:33;;;;;;;9.68;5.97;;;;;;;;;;6246368;28;20045;-54
2023/09/04 01:41:39;;;;;;;9.77;5.60;;;;;;;;;;6259423;28;20660;-58
2023/09/04 01:44:41;;;;;;;9.25;6.25;;;;;;;;;;6248933;28;20586;-58
2023/09/04 01:47:42;;;;;;;11.65;6.07;;;;;;;;;;6246831;28;20420;-58
2023/09/04 01:50:42;;;;;;;8.70;5.68;;;;;;;;;;6248712;28;20048;-58
2023/09/04 01:53:43;;;;;;;12.52;6.07;;;;;;;;;;6280954;28;20072;-59
2023/09/04 01:56:43;;;;;;;8.90;5.55;;;;;;;;;;6250696;28;20514;-59
2023/09/04 01:59:44;;;;;;;8.93;5.60;;;;;;;;;;6249074;28;20106;-58
2023/09/04 02:02:45;;;;;;;9.02;5.97;;;;;;;;;;6248267;28;20037;-58
2023/09/04 02:05:46;;;;;;;11.95;5.95;;;;;;;;;;6247354;28;20045;-58
2023/09/04 02:08:47;;;;;;;8.23;5.57;;;;;;;;;;6245816;28;20088;-57
2023/09/04 02:11:47;;;;;;;9.40;5.80;;;;;;;;;;6244943;28;20049;-58
2023/09/04 02:14:52;;;;;;;12.77;5.82;;;;;;;;;;6261897;28;20286;-59
2023/09/04 02:17:52;;;;;;;11.85;5.97;;;;;;;;;;6252969;28;20540;-59
2023/09/04 02:20:53;;;;;;;8.95;5.30;;;;;;;;;;6249609;28;20091;-59
2023/09/04 02:23:53;;;;;;;11.00;5.63;;;;;;;;;;6244732;28;20140;-58
2023/09/04 02:26:54;;;;;;;12.15;5.47;;;;;;;;;;6248027;28;20045;-56
2023/09/04 02:29:55;;;;;;;9.98;5.53;;;;;;;;;;6246415;28;20045;-58
2023/09/04 02:32:59;;;;;;;8.57;5.32;;;;;;;;;;6247485;28;20037;-57
2023/09/04 02:36:01;;;;;;;10.50;5.13;;;;;;;;;;6248233;28;20191;-58
2023/09/04 02:39:01;;;;;;;8.98;5.55;;;;;;;;;;6247271;28;20053;-58
2023/09/04 02:42:02;;;;;;;9.40;5.38;;;;;;;;;;6247684;28;20137;-59
2023/09/04 02:45:03;;;;;;;11.60;5.40;;;;;;;;;;6249175;28;20496;-58
2023/09/04 02:48:03;;;;;;;7.85;5.05;;;;;;;;;;6245443;28;20051;-57
2023/09/04 02:51:04;;;;;;;8.40;5.63;;;;;;;;;;6248076;28;20041;-58
2023/09/04 02:54:05;;;;;;;8.63;5.18;;;;;;;;;;6264424;28;20174;-57
2023/09/04 02:57:05;;;;;;;9.32;5.40;;;;;;;;;;6252891;28;20060;-58
2023/09/04 03:00:06;;;;;;;11.57;5.25;;;;;;;;;;6246402;28;20071;-57
2023/09/04 03:03:07;;;;;;;7.47;5.10;;;;;;;;;;6247511;28;20779;-58
2023/09/04 03:06:09;;;;;;;9.07;4.93;;;;;;;;;;6247802;28;20106;-59
2023/09/04 03:09:09;;;;;;;11.45;5.18;;;;;;;;;;6246939;28;20485;-58
2023/09/04 03:12:10;;;;;;;9.32;5.50;;;;;;;;;;6246214;28;20046;-56
2023/09/04 03:15:10;;;;;;;9.55;5.53;;;;;;;;;;6250251;28;20473;-58
2023/09/04 03:18:11;;;;;;;9.55;5.68;;;;;;;;;;6248321;28;20065;-54
2023/09/04 03:21:12;;;;;;;8.30;5.00;;;;;;;;;;6247438;28;20033;-57
2023/09/04 03:24:12;;;;;;;9.32;4.93;;;;;;;;;;6245908;28;20053;-58
2023/09/04 03:27:13;;;;;;;10.32;5.18;;;;;;;;;;6245785;28;20501;-58
2023/09/04 03:30:14;;;;;;;10.95;5.22;;;;;;;;;;6247200;28;20041;-58
2023/09/04 03:33:14;;;;;;;11.18;4.85;;;;;;;;;;6247384;28;20503;-58
2023/09/04 03:36:15;;;;;;;10.88;5.60;;;;;;;;;;6246498;28;20049;-59
2023/09/04 03:39:16;;;;;;;10.93;5.45;;;;;;;;;;6243962;28;20057;-55
2023/09/04 03:42:17;;;;;;;11.20;5.03;;;;;;;;;;6245650;28;20041;-57
2023/09/04 03:45:18;;;;;;;8.90;5.50;;;;;;;;;;6247813;28;20045;-59
2023/09/04 03:48:19;;;;;;;11.73;5.00;;;;;;;;;;6246831;28;20124;-59
2023/09/04 03:51:19;;;;;;;7.55;4.97;;;;;;;;;;6246693;28;20432;-60
2023/09/04 03:54:20;;;;;;;14.07;5.07;;;;;;;;;;6245712;28;20447;-58
2023/09/04 03:57:20;;;;;;;10.13;5.07;;;;;;;;;;6245299;28;20033;-54
2023/09/04 04:00:22;;;;;;;8.15;5.13;;;;;;;;;;6245887;28;20071;-57
2023/09/04 04:03:23;;;;;;;9.90;5.07;;;;;;;;;;6256338;28;20280;-58
2023/09/04 04:06:25;;;;;;;11.00;5.50;;;;;;;;;;6246116;28;20091;-59
2023/09/04 04:09:25;;;;;;;9.90;5.13;;;;;;;;;;6249240;28;20037;-58
2023/09/04 04:12:26;;;;;;;10.73;5.18;;;;;;;;;;6252311;28;20075;-55
2023/09/04 04:15:27;;;;;;;9.10;5.00;;;;;;;;;;6246426;28;20434;-56
2023/09/04 04:18:27;;;;;;;11.23;5.40;;;;;;;;;;6244020;28;20829;-59
2023/09/04 04:21:28;;;;;;;9.63;4.85;;;;;;;;;;6246829;28;20079;-57
2023/09/04 04:24:28;;;;;;;11.63;5.18;;;;;;;;;;6245241;28;20048;-57
2023/09/04 04:27:29;;;;;;;8.25;5.55;;;;;;;;;;6243514;28;20091;-58
2023/09/04 04:30:30;;;;;;;9.90;5.20;;;;;;;;;;6246186;28;20057;-58
2023/09/04 04:33:30;;;;;;;11.88;5.32;;;;;;;;;;6243268;28;20054;-53
2023/09/04 04:36:31;;;;;;;8.15;4.93;;;;;;;;;;6254211;28;20045;-57
2023/09/04 04:39:31;;;;;;;8.43;4.63;;;;;;;;;;6244251;28;20042;-59
2023/09/04 04:42:32;;;;;;;8.35;4.80;;;;;;;;;;6244802;28;20132;-55
2023/09/04 04:45:33;;;;;;;11.18;5.07;;;;;;;;;;6243793;28;20045;-58
2023/09/04 04:48:33;;;;;;;9.48;5.32;;;;;;;;;;6241123;28;20044;-56
2023/09/04 04:51:34;;;;;;;12.50;4.95;;;;;;;;;;6245882;28;20042;-58
2023/09/04 04:54:34;;;;;;;11.75;4.75;;;;;;;;;;6250690;28;20063;-60
2023/09/04 04:57:35;;;;;;;9.10;5.25;;;;;;;;;;6242953;28;20042;-58
2023/09/04 05:00:36;;;;;;;11.43;5.60;;;;;;;;;;6244411;28;20122;-58
2023/09/04 05:03:36;;;;;;;9.55;5.18;;;;;;;;;;6248779;28;20129;-58
2023/09/04 05:06:37;;;;;;;9.70;4.95;;;;;;;;;;6249985;28;20054;-58
2023/09/04 05:09:37;;;;;;;10.27;5.05;;;;;;;;;;6243891;28;21474;-58
2023/09/04 05:12:38;;;;;;;9.25;5.93;;;;;;;;;;6245583;28;20136;-55
2023/09/04 05:15:39;;;;;;;9.65;4.95;;;;;;;;;;6251599;28;20086;-55
2023/09/04 05:18:39;;;;;;;8.90;5.35;;;;;;;;;;6257752;28;20040;-59
2023/09/04 05:21:40;;;;;;;8.75;4.88;;;;;;;;;;6250023;28;20045;-59
2023/09/04 05:24:40;;;;;;;8.50;5.05;;;;;;;;;;6250277;28;20041;-59
2023/09/04 05:27:41;;;;;;;11.13;4.97;;;;;;;;;;6253034;28;20042;-60
2023/09/04 05:30:42;;;;;;;8.68;4.38;;;;;;;;;;6251185;28;20117;-58
2023/09/04 05:33:42;;;;;;;10.57;5.22;;;;;;;;;;6247250;28;20037;-59
2023/09/04 05:36:43;;;;;;;10.02;4.95;;;;;;;;;;6248182;28;20055;-58
2023/09/04 05:39:44;;;;;;;9.02;5.05;;;;;;;;;;6251848;28;20045;-59
2023/09/04 05:42:44;;;;;;;10.70;5.13;;;;;;;;;;6260440;28;20416;-59
2023/09/04 05:45:45;;;;;;;9.15;4.72;;;;;;;;;;6260440;28;20037;-58
2023/09/04 05:48:46;;;;;;;8.85;5.03;;;;;;;;;;6249980;28;20502;-57
2023/09/04 05:51:47;;;;;;;11.60;5.03;;;;;;;;;;6248498;28;20555;-55
2023/09/04 05:54:47;;;;;;;11.90;5.15;;;;;;;;;;6253892;28;20294;-57
2023/09/04 05:57:48;;;;;;;9.43;4.70;;;;;;;;;;6246958;28;20415;-58
2023/09/04 06:00:49;;;;;;;10.38;4.53;;;;;;;;;;6245167;28;20119;-58
2023/09/04 06:03:49;;;;;;;7.90;4.47;;;;;;;;;;6250728;28;20048;-58
2023/09/04 06:06:50;;;;;;;10.00;4.70;;;;;;;;;;6256761;28;20077;-58
2023/09/04 06:09:50;;;;;;;9.52;4.78;;;;;;;;;;6245965;28;20044;-58
2023/09/04 06:12:52;;;;;;;7.90;4.70;;;;;;;;;;6246715;28;20053;-59
2023/09/04 06:15:53;;;;;;;9.13;4.60;;;;;;;;;;6249189;28;20042;-59
2023/09/04 06:18:53;;;;;;;7.53;4.22;;;;;;;;;;6247831;28;20036;-58
2023/09/04 06:21:54;;;;;;;8.52;4.50;;;;;;;;;;6247285;28;20405;-57
2023/09/04 06:24:55;;;;;;;8.93;4.50;;;;;;;;;;6251772;28;20054;-59
2023/09/04 06:27:56;;;;;;;8.40;4.10;;;;;;;;;;6246154;28;20045;-58
2023/09/04 06:30:56;;;;;;;7.25;4.32;;;;;;;;;;6249398;28;20094;-58
2023/09/04 06:33:57;;;;;;;8.52;4.38;;;;;;;;;;6248544;28;20463;-56
2023/09/04 06:36:58;;;;;;;8.95;3.88;;;;;;;;;;6253704;28;20052;-59
2023/09/04 06:39:58;;;;;;;8.80;4.35;;;;;;;;;;6246630;28;20040;-59
2023/09/04 06:42:59;;;;;;;7.55;4.60;;;;;;;;;;6248208;28;20071;-59
2023/09/04 06:46:01;;;;;;;9.60;4.30;;;;;;;;;;6248705;28;20041;-59
2023/09/04 06:49:02;;;;;;;7.55;4.13;;;;;;;;;;6244953;28;20642;-58
2023/09/04 06:52:28;;;;;;;8.48;4.30;;;;;;;;;;6651723;23;20021;31
2023/09/04 06:55:29;;;;;;;9.35;4.15;;;;;;;;;;6183097;28;20050;-60
2023/09/04 06:58:30;;;;;;;10.98;4.57;;;;;;;;;;6188697;28;20051;-58
2023/09/04 07:01:31;;;;;;;11.00;4.38;;;;;;;;;;6186156;28;20481;-61
2023/09/04 07:04:31;;;;;;;8.70;4.20;;;;;;;;;;6184780;28;20061;-61
2023/09/04 07:07:35;;;;;;;11.38;4.55;;;;;;;;;;6188520;28;20046;-59
2023/09/04 07:10:35;;;;;;;13.73;4.15;;;;;;;;;;6187817;28;20485;-61
2023/09/04 07:13:36;;;;;;;7.25;4.40;;;;;;;;;;6183966;28;20136;-60
2023/09/04 07:16:38;;;;;;;7.07;3.80;;;;;;;;;;6188029;28;20578;-60
2023/09/04 07:19:39;;;;;;;9.43;4.07;;;;;;;;;;6188980;28;20039;-60
2023/09/04 07:22:40;;;;;;;12.63;4.18;;;;;;;;;;6186547;28;20468;-61
2023/09/04 07:25:40;;;;;;;10.15;4.45;;;;;;;;;;6186778;28;20137;-59
2023/09/04 07:28:41;;;;;;;10.68;3.90;;;;;;;;;;6186641;28;20117;-60
2023/09/04 07:31:41;;;;;;;7.07;3.72;;;;;;;;;;6184191;28;20046;-60
2023/09/04 07:34:42;;;;;;;5.80;3.13;;;;;;;;;;6184833;28;21461;-60
2023/09/04 07:37:44;;;;;;;6.47;3.33;;;;;;;;;;6187072;28;20049;-60
2023/09/04 07:40:44;;;;;;;7.88;3.83;;;;;;;;;;6184944;28;20046;-60
2023/09/04 07:43:45;;;;;;;6.85;3.28;;;;;;;;;;6185350;28;20042;-59
2023/09/04 07:46:46;;;;;;;8.25;3.20;;;;;;;;;;6188025;28;20461;-60
2023/09/04 07:49:46;;;;;;;9.48;3.20;;;;;;;;;;6186644;28;20076;-60
2023/09/04 07:52:47;;;;;;;7.45;3.30;;;;;;;;;;6184967;28;20539;-60
2023/09/04 07:55:48;;;;;;;6.00;3.28;;;;;;;;;;6186388;28;20392;-61
2023/09/04 07:58:49;;;;;;;8.00;3.17;;;;;;;;;;6183806;28;20049;-60
2023/09/04 08:01:50;;;;;;;6.55;2.88;;;;;;;;;;6185738;28;20136;-60
2023/09/04 08:04:51;;;;;;;6.47;3.10;;;;;;;;;;6184451;28;20077;-60
2023/09/04 08:07:52;;;;;;;6.90;3.08;;;;;;;;;;6186094;28;20204;-60
2023/09/04 08:10:53;;;;;;;6.43;3.20;;;;;;;;;;6184748;28;20105;-58
2023/09/04 08:13:54;;;;;;;7.77;3.10;;;;;;;;;;6181945;28;20080;-60
2023/09/04 08:16:54;;;;;;;9.95;3.25;;;;;;;;;;6187779;28;20296;-60
2023/09/04 08:19:55;;;;;;;5.80;2.83;;;;;;;;;;6185502;28;20199;-60
2023/09/04 08:22:55;;;;;;;9.38;3.35;;;;;;;;;;6185148;28;20402;-60
2023/09/04 08:26:00;;;;;;;5.13;2.95;;;;;;;;;;6187624;28;20124;-60
2023/09/04 08:29:01;;;;;;;6.78;3.10;;;;;;;;;;6186370;28;20039;-60
2023/09/04 08:32:02;;;;;;;6.35;3.20;;;;;;;;;;6185821;28;20120;-60
2023/09/04 08:35:02;;;;;;;6.07;2.97;;;;;;;;;;6185581;28;20527;-61
2023/09/04 08:38:05;;;;;;;6.60;3.20;;;;;;;;;;6190494;28;20153;-61
2023/09/04 08:41:08;;;;;;;6.43;2.95;;;;;;;;;;6188373;28;20050;-60
2023/09/04 08:44:09;;;;;;;7.40;3.00;;;;;;;;;;6187885;28;20034;-60
2023/09/04 08:47:13;;;;;;;8.88;3.20;;;;;;;;;;6189569;28;20600;-60
2023/09/04 08:50:14;;;;;;;5.32;2.85;;;;;;;;;;6189831;28;20112;-59
2023/09/04 08:53:16;;;;;;;7.82;3.22;;;;;;;;;;6190204;28;20521;-60
2023/09/04 08:56:17;;;;;;;7.82;3.28;;;;;;;;;;6190578;28;20084;-60
2023/09/04 08:59:17;;;;;;;7.25;3.70;;;;;;;;;;6190704;28;20448;-61
2023/09/04 09:02:18;;;;;;;8.82;3.67;;;;;;;;;;6189680;28;20050;-60
2023/09/04 09:05:20;;;;;;;6.25;3.88;;;;;;;;;;6188753;28;20046;-60
2023/09/04 09:08:21;;;;;;;8.43;3.35;;;;;;;;;;6190862;28;20510;-61
2023/09/04 09:11:22;;;;;;;6.75;3.40;;;;;;;;;;6190170;28;20056;-60
2023/09/04 09:14:29;;;;;;;8.23;3.53;;;;;;;;;;6189557;28;20046;-60
2023/09/04 09:17:29;;;;;;;10.52;3.65;;;;;;;;;;6191877;28;20042;-61
2023/09/04 09:20:35;;;;;;;7.82;3.38;;;;;;;;;;6189443;28;20061;-60
2023/09/04 09:23:35;;;;;;;7.55;3.40;;;;;;;;;;6181130;28;20054;-60
2023/09/04 09:26:41;;;;;;;5.55;3.25;;;;;;;;;;6180192;28;20054;-60
2023/09/04 09:29:42;;;;;;;7.97;3.30;;;;;;;;;;6168500;28;20133;-60
2023/09/04 09:32:44;;;;;;;7.93;3.10;;;;;;;;;;6179607;28;20485;-60
2023/09/04 09:35:45;;;;;;;7.03;3.10;;;;;;;;;;6180914;28;20057;-60
2023/09/04 09:38:46;;;;;;;8.57;3.55;;;;;;;;;;6182191;28;20399;-61
2023/09/04 09:41:47;;;;;;;7.07;3.33;;;;;;;;;;6178398;28;20140;-60
2023/09/04 09:44:47;;;;;;;6.27;3.07;;;;;;;;;;6183453;28;20088;-59
2023/09/04 09:47:51;;;;;;;7.07;3.30;;;;;;;;;;6183039;28;20390;-60
2023/09/04 09:50:53;;;;;;;6.25;3.20;;;;;;;;;;6186497;28;20109;-60
2023/09/04 09:53:54;;;;;;;6.78;3.13;;;;;;;;;;6183754;28;20063;-60
2023/09/04 09:56:55;;;;;;;6.37;3.00;;;;;;;;;;6182810;28;20057;-61
2023/09/04 09:59:55;;;;;;;7.57;3.23;;;;;;;;;;6182002;28;20571;-62
2023/09/04 10:02:57;;;;;;;5.93;2.90;;;;;;;;;;6180660;28;20480;-60
2023/09/04 10:06:02;;;;;;;6.65;2.90;;;;;;;;;;6184243;28;20075;-61
2023/09/04 10:09:06;;;;;;;6.25;3.00;;;;;;;;;;6185682;28;20053;-60
2023/09/04 10:12:17;;;;;;;8.02;3.17;;;;;;;;;;6180166;28;20077;-60
2023/09/04 10:15:25;;;;;;;6.55;3.17;;;;;;;;;;6178720;28;20468;-60
2023/09/04 10:18:30;;;;;;;5.75;3.03;;;;;;;;;;6179753;28;20038;-60
2023/09/04 10:21:37;;;;;;;4.32;2.50;;;;;;;;;;6178409;28;20050;-60
2023/09/04 10:24:48;;;;;;;6.78;2.78;;;;;;;;;;6177049;28;20050;-61
2023/09/04 10:28:01;;;;;;;5.68;2.67;;;;;;;;;;6177580;28;20080;-61
2023/09/04 10:31:02;;;;;;;5.38;2.50;;;;;;;;;;6188446;28;20038;-60
2023/09/04 10:34:03;;;;;;;8.88;3.45;;;;;;;;;;6189558;28;20104;-60
2023/09/04 10:37:04;;;;;;;7.93;3.27;;;;;;;;;;6187245;28;20425;-60
2023/09/04 10:40:06;;;;;;;7.73;2.90;;;;;;;;;;6190015;28;20520;-60
2023/09/04 10:43:10;;;;;;;6.75;2.80;;;;;;;;;;6190605;28;20452;-61
2023/09/04 10:46:12;;;;;;;5.97;3.13;;;;;;;;;;6187536;28;20096;-60
2023/09/04 10:49:29;;;;;;;7.63;2.63;;;;;;;;;;6186242;28;20473;-56
2023/09/04 10:52:41;;;;;;;7.35;3.00;;;;;;;;;;6187420;28;20145;-60
2023/09/04 10:56:10;;;;;;;5.57;3.10;;;;;;;;;;6187522;28;20472;-58
2023/09/04 10:59:11;;;;;;;6.63;3.35;;;;;;;;;;6185685;28;20042;-58
2023/09/04 11:02:29;;;;;;;6.33;2.80;;;;;;;;;;6188539;28;20069;-60
2023/09/04 11:05:31;;;;;;;9.73;3.45;;;;;;;;;;6192671;28;20068;-60
2023/09/04 11:08:33;;;;;;;7.78;3.58;;;;;;;;;;6190973;28;20130;-58
2023/09/04 11:11:35;;;;;;;8.52;2.75;;;;;;;;;;6187087;28;20046;-56
2023/09/04 11:14:44;;;;;;;6.45;2.70;;;;;;;;;;6186490;28;20126;-60
2023/09/04 11:17:50;;;;;;;6.45;2.95;;;;;;;;;;6188315;28;20050;-60
2023/09/04 11:20:54;;;;;;;5.07;2.80;;;;;;;;;;6186541;28;20057;-60
2023/09/04 11:23:58;;;;;;;5.70;3.03;;;;;;;;;;6186421;28;20038;-60
2023/09/04 11:26:58;;;;;;;8.07;2.60;;;;;;;;;;6187304;28;20049;-61
2023/09/04 11:30:01;;;;;;;6.47;2.80;;;;;;;;;;6185580;28;20054;-59
2023/09/04 11:33:02;;;;;;;5.90;2.40;;;;;;;;;;6185724;28;20050;-59
2023/09/04 11:36:06;;;;;;;6.73;2.83;;;;;;;;;;6188251;28;20081;-60
2023/09/04 11:39:12;;;;;;;6.18;2.88;;;;;;;;;;6171464;28;20092;-60
2023/09/04 11:42:19;;;;;;;6.20;2.80;;;;;;;;;;6185799;28;20053;-60
2023/09/04 11:45:20;;;;;;;5.45;2.80;;;;;;;;;;6173765;28;20374;-60
2023/09/04 11:48:27;;;;;;;6.60;2.60;;;;;;;;;;6189998;28;20456;-60
2023/09/04 11:51:28;;;;;;;6.95;2.63;;;;;;;;;;6188157;28;20133;-59
2023/09/04 11:54:29;;;;;;;7.20;2.33;;;;;;;;;;6181782;28;20555;-59
2023/09/04 11:57:30;;;;;;;6.47;2.70;;;;;;;;;;6184221;28;20967;-59
2023/09/04 12:00:30;;;;;;;6.18;2.90;;;;;;;;;;6186835;28;20054;-59
2023/09/04 12:03:31;;;;;;;5.70;2.73;;;;;;;;;;6184777;28;20049;-59
2023/09/04 12:06:33;;;;;;;5.53;2.67;;;;;;;;;;6184602;28;20045;-59
2023/09/04 12:09:36;;;;;;;5.20;2.53;;;;;;;;;;6186678;28;20042;-60
2023/09/04 12:12:37;;;;;;;5.88;2.80;;;;;;;;;;6184146;28;20513;-59
2023/09/04 12:15:38;;;;;;;6.32;2.78;;;;;;;;;;6184933;28;20070;-59
2023/09/04 12:18:39;;;;;;;7.95;3.10;;;;;;;;;;6186211;28;20046;-59
2023/09/04 12:21:39;;;;;;;5.87;3.30;;;;;;;;;;6185416;28;20057;-59
2023/09/04 12:25:05;;;;;;;5.83;2.80;;;;;;;;;;6185004;28;20188;-60
2023/09/04 12:28:09;;;;;;;6.57;3.42;;;;;;;;;;6184118;28;20454;-60
2023/09/04 12:31:11;;;;;;;7.85;3.47;;;;;;;;;;6183985;28;20042;-59
2023/09/04 12:34:11;;;;;;;9.23;3.58;;;;;;;;;;6186012;28;20043;-59
2023/09/04 12:37:12;;;;;;;8.47;3.20;;;;;;;;;;6187559;28;20058;-59
2023/09/04 12:40:13;;;;;;;6.17;2.87;;;;;;;;;;6183752;28;20053;-60
2023/09/04 12:43:14;;;;;;;6.13;2.90;;;;;;;;;;6184304;28;20501;-59
2023/09/04 12:46:14;;;;;;;5.57;2.97;;;;;;;;;;6186393;28;20421;-59
2023/09/04 12:49:15;;;;;;;7.33;2.80;;;;;;;;;;6186006;28;20077;-60
2023/09/04 12:52:15;;;;;;;7.87;2.77;;;;;;;;;;6184399;28;20073;-60
2023/09/04 12:55:16;;;;;;;6.93;3.00;;;;;;;;;;6184573;28;20532;-60
2023/09/04 12:58:18;;;;;;;6.90;3.40;;;;;;;;;;6184446;28;20046;-60
2023/09/04 13:01:19;;;;;;;7.93;3.25;;;;;;;;;;6183815;28;20485;-60
2023/09/04 13:04:20;;;;;;;6.77;2.90;;;;;;;;;;6186919;28;20046;-60
2023/09/04 13:07:20;;;;;;;6.72;3.35;;;;;;;;;;6186816;28;20444;-59
2023/09/04 13:10:22;;;;;;;7.53;3.30;;;;;;;;;;6188327;28;20053;-58
2023/09/04 13:13:22;;;;;;;;;;;;;;;;;;6178606;28;20493;-60
2023/09/04 13:16:23;;;;;;;5.40;2.97;;;;;;;;;;6179307;28;19929;-59
2023/09/04 13:19:25;;;;;;;10.87;4.57;;;;;;;;;;6176008;28;20143;-60
2023/09/04 13:22:25;;;;;;;8.75;3.13;;;;;;;;;;6175860;28;20054;-59
2023/09/04 13:25:26;;;;;;;6.33;3.17;;;;;;;;;;6178432;28;20627;-59
2023/09/04 13:28:27;;;;;;;6.43;3.10;;;;;;;;;;6178816;28;20061;-59
2023/09/04 13:31:28;;;;;;;7.80;3.45;;;;;;;;;;6180443;28;20054;-60
2023/09/04 13:34:28;;;;;;;6.63;3.70;;;;;;;;;;6175335;28;20053;-60
2023/09/04 13:37:30;;;;;;;6.77;3.10;;;;;;;;;;6178981;28;20042;-60
2023/09/04 13:40:31;;;;;;;5.82;3.38;;;;;;;;;;6180520;28;20575;-59
2023/09/04 13:43:32;;;;;;;6.78;3.80;;;;;;;;;;6176188;28;20057;-60
2023/09/04 13:46:33;;;;;;;5.97;3.23;;;;;;;;;;6179840;28;20046;-57
2023/09/04 13:49:34;;;;;;;8.57;3.38;;;;;;;;;;6178856;28;20046;-60
2023/09/04 13:52:34;;;;;;;6.87;3.43;;;;;;;;;;6175498;28;20481;-59
2023/09/04 13:55:35;;;;;;;7.47;3.63;;;;;;;;;;6175634;28;20489;-60
2023/09/04 13:58:36;;;;;;;7.20;3.57;;;;;;;;;;6178857;28;20042;-60
2023/09/04 14:01:36;;;;;;;7.30;3.63;;;;;;;;;;6179437;28;20486;-59
2023/09/04 14:04:37;;;;;;;6.60;3.27;;;;;;;;;;6176453;28;20093;-60
2023/09/04 14:07:37;;;;;;;6.33;3.33;;;;;;;;;;6178909;28;20097;-60
2023/09/04 14:10:38;;;;;;;8.60;3.60;;;;;;;;;;6180906;28;20046;-60
2023/09/04 14:13:39;;;;;;;6.45;3.65;;;;;;;;;;6175162;28;20136;-59
2023/09/04 14:16:40;;;;;;;8.10;3.50;;;;;;;;;;6175494;28;20046;-59
2023/09/04 14:19:41;;;;;;;8.93;3.67;;;;;;;;;;6177093;28;20054;-60
2023/09/04 14:22:41;;;;;;;8.40;3.90;;;;;;;;;;6175577;28;20108;-60
2023/09/04 14:25:49;;;;;;;7.80;3.53;;;;;;;;;;6180891;28;20497;-57
2023/09/04 14:28:50;;;;;;;6.03;3.47;;;;;;;;;;6181146;28;20067;-58
2023/09/04 14:31:50;;;;;;;6.93;4.07;;;;;;;;;;6178247;28;20090;-60
2023/09/04 14:34:52;;;;;;;7.77;3.93;;;;;;;;;;6176538;28;20417;-60
2023/09/04 14:37:55;;;;;;;6.72;3.47;;;;;;;;;;6177536;28;20069;-59
2023/09/04 14:40:58;;;;;;;7.35;3.88;;;;;;;;;;6178819;28;20137;-60
2023/09/04 14:43:59;;;;;;;8.23;3.97;;;;;;;;;;6176442;28;20562;-59
2023/09/04 14:47:00;;;;;;;7.85;3.45;;;;;;;;;;6177563;28;20149;-61
2023/09/04 14:50:01;;;;;;;8.53;4.17;;;;;;;;;;6177402;28;20133;-60
2023/09/04 14:53:01;;;;;;;7.73;3.93;;;;;;;;;;6173480;28;20164;-59
2023/09/04 14:56:02;;;;;;;7.63;4.00;;;;;;;;;;6176822;28;20049;-59
2023/09/04 14:59:03;;;;;;;8.37;4.03;;;;;;;;;;6178206;28;20121;-59
2023/09/04 15:02:04;;;;;;;9.15;4.13;;;;;;;;;;6172859;28;20050;-59
2023/09/04 15:05:05;;;;;;;8.93;4.17;;;;;;;;;;6173291;28;20050;-57
2023/09/04 15:08:05;;;;;;;8.98;4.30;;;;;;;;;;6176621;28;20156;-59
2023/09/04 15:11:10;;;;;;;6.63;3.70;;;;;;;;;;6179659;28;20047;-59
2023/09/04 15:14:10;;;;;;;7.28;3.47;;;;;;;;;;6173987;28;20093;-58
2023/09/04 15:17:11;;;;;;;7.90;4.00;;;;;;;;;;6175787;28;20054;-60
2023/09/04 15:20:12;;;;;;;8.20;3.90;;;;;;;;;;6175551;28;20451;-59
2023/09/04 15:23:12;;;;;;;7.23;4.10;;;;;;;;;;6155616;28;20050;-59
2023/09/04 15:26:13;;;;;;;8.37;3.93;;;;;;;;;;6176530;28;20113;-59
2023/09/04 15:29:13;;;;;;;7.77;4.27;;;;;;;;;;6175501;28;20058;-59
2023/09/04 15:32:14;;;;;;;8.37;4.03;;;;;;;;;;6175173;28;20046;-60
2023/09/04 15:35:14;;;;;;;9.13;4.33;;;;;;;;;;6176190;28;20442;-59
2023/09/04 15:38:15;;;;;;;9.53;4.07;;;;;;;;;;6177616;28;20527;-59
2023/09/04 15:41:15;;;;;;;7.60;4.20;;;;;;;;;;6176780;28;20085;-59
2023/09/04 15:44:16;;;;;;;7.47;4.20;;;;;;;;;;6173353;28;20082;-59
2023/09/04 15:47:17;;;;;;;9.20;4.37;;;;;;;;;;6177804;28;20128;-59
2023/09/04 15:50:19;;;;;;;7.97;4.03;;;;;;;;;;6177775;28;20153;-59
2023/09/04 15:53:21;;;;;;;8.82;4.10;;;;;;;;;;6173965;28;20054;-58
2023/09/04 15:56:22;;;;;;;8.25;4.05;;;;;;;;;;6177438;28;20102;-59
2023/09/04 15:59:22;;;;;;;10.33;4.37;;;;;;;;;;6179120;28;20038;-58
2023/09/04 16:02:23;;;;;;;7.70;4.30;;;;;;;;;;6174253;28;20140;-59
2023/09/04 16:05:24;;;;;;;8.27;4.03;;;;;;;;;;6175347;28;20102;-60
2023/09/04 16:08:25;;;;;;;10.27;4.18;;;;;;;;;;6177635;28;20042;-59
2023/09/04 16:11:26;;;;;;;11.50;5.03;;;;;;;;;;6176746;28;20061;-59
2023/09/04 16:14:27;;;;;;;9.33;4.03;;;;;;;;;;6173678;28;20052;-61
2023/09/04 16:17:27;;;;;;;7.30;3.80;;;;;;;;;;6175780;28;20042;-58
2023/09/04 16:20:28;;;;;;;8.43;4.70;;;;;;;;;;6176553;28;20145;-58
2023/09/04 16:23:28;;;;;;;8.30;4.33;;;;;;;;;;6171690;28;20544;-62
2023/09/04 16:26:30;;;;;;;8.73;4.13;;;;;;;;;;6175625;28;20153;-58
2023/09/04 16:29:30;;;;;;;7.63;4.00;;;;;;;;;;6159271;28;20421;-61
2023/09/04 16:32:31;;;;;;;9.33;4.23;;;;;;;;;;6178586;28;20058;-60
2023/09/04 16:35:31;;;;;;;8.30;3.90;;;;;;;;;;6181356;28;20108;-60
2023/09/04 16:38:32;;;;;;;8.10;4.17;;;;;;;;;;6182366;28;20069;-60
2023/09/04 16:41:32;;;;;;;12.43;4.63;;;;;;;;;;6183561;28;20046;-60
2023/09/04 16:44:33;;;;;;;8.03;4.33;;;;;;;;;;6187263;28;20062;-59
2023/09/04 16:47:34;;;;;;;11.43;5.00;;;;;;;;;;6180677;28;20054;-59
2023/09/04 16:50:34;;;;;;;9.23;4.60;;;;;;;;;;6181576;28;20141;-60
2023/09/04 16:53:35;;;;;;;8.83;4.37;;;;;;;;;;6178469;28;20062;-59
2023/09/04 16:56:35;;;;;;;10.00;5.03;;;;;;;;;;6184383;28;20054;-60
2023/09/04 16:59:36;;;;;;;10.63;4.53;;;;;;;;;;6188302;28;20560;-60
2023/09/04 17:02:37;;;;;;;8.23;4.30;;;;;;;;;;6185406;28;20096;-59
2023/09/04 17:05:38;;;;;;;9.47;4.90;;;;;;;;;;6188365;28;20379;-61
2023/09/04 17:08:38;;;;;;;10.00;4.70;;;;;;;;;;6188381;28;20144;-59
2023/09/04 17:11:39;;;;;;;9.53;4.80;;;;;;;;;;6186891;28;20057;-59
2023/09/04 17:14:39;;;;;;;8.80;5.30;;;;;;;;;;6185996;28;20264;-57
2023/09/04 17:17:40;;;;;;;9.93;5.33;;;;;;;;;;6186991;28;20057;-60
2023/09/04 17:20:41;;;;;;;9.90;4.97;;;;;;;;;;6187875;28;20074;-60
2023/09/04 17:23:41;;;;;;;12.93;5.30;;;;;;;;;;6183826;28;20057;-60
2023/09/04 17:26:42;;;;;;;10.73;5.57;;;;;;;;;;6187727;28;20507;-60
2023/09/04 17:29:42;;;;;;;9.63;5.37;;;;;;;;;;6187680;28;20360;-60
2023/09/04 17:32:43;;;;;;;16.57;6.13;;;;;;;;;;6184114;28;20102;-60
2023/09/04 17:35:45;;;;;;;11.10;6.17;;;;;;;;;;6188091;28;20054;-58
2023/09/04 17:38:45;;;;;;;12.35;6.68;;;;;;;;;;6186851;28;20420;-59
2023/09/04 17:41:46;;;;;;;16.03;7.50;;;;;;;;;;6184158;28;20042;-60
2023/09/04 17:44:47;;;;;;;15.13;7.87;;;;;;;;;;6186298;28;20053;-60
2023/09/04 17:47:47;;;;;;;18.93;8.63;;;;;;;;;;6186800;28;20482;-60
2023/09/04 17:50:48;;;;;;;14.50;8.43;;;;;;;;;;6186306;28;20457;-60
2023/09/04 17:53:49;;;;;;;14.60;8.30;;;;;;;;;;6182626;28;20058;-60
2023/09/04 17:56:49;;;;;;;14.50;7.80;;;;;;;;;;6186979;28;20108;-60
2023/09/04 17:59:50;;;;;;;13.97;8.00;;;;;;;;;;6185380;28;20046;-60
2023/09/04 18:02:50;;;;;;;16.37;7.80;;;;;;;;;;6182863;28;20045;-60
2023/09/04 18:05:51;;;;;;;12.40;7.50;;;;;;;;;;6186546;28;20058;-61